Time;durP1;ratioP1;P1;durP2;ratioP2;P2;SDS_P1;SDS_P2;PMS_P1;PMS_P2;Temp;Humidity;BMP_temperature;BMP_pressure;BME280_temperature;BME280_humidity;BME280_pressure;Samples;Min_cycle;Max_cycle;Signal;HPM_P1;HPM_P2
2024/03/08 00:00:53;;;;;;;14.03;10.17;;;4.10;52.80;;;;;;4997628;28;20321;-59
2024/03/08 00:03:20;;;;;;;14.00;10.70;;;4.10;52.70;;;;;;4999335;28;20245;-59
2024/03/08 00:05:46;;;;;;;12.37;10.10;;;3.90;52.80;;;;;;5000282;28;20212;-57
2024/03/08 00:08:13;;;;;;;13.60;10.37;;;3.80;53.50;;;;;;5000112;28;20220;-58
2024/03/08 00:10:39;;;;;;;12.83;11.33;;;3.80;53.70;;;;;;4999906;28;20197;-60
2024/03/08 00:13:06;;;;;;;12.33;10.60;;;3.80;53.70;;;;;;4990842;28;20228;-58
2024/03/08 00:15:33;;;;;;;13.90;11.17;;;3.80;53.40;;;;;;4999017;28;20236;-58
2024/03/08 00:17:59;;;;;;;12.30;10.93;;;3.80;53.20;;;;;;4997587;28;20207;-59
2024/03/08 00:20:26;;;;;;;13.83;10.37;;;4.00;53.00;;;;;;4996113;28;20223;-58
2024/03/08 00:22:53;;;;;;;11.23;9.90;;;3.90;52.50;;;;;;4994732;28;20229;-59
2024/03/08 00:25:19;;;;;;;12.70;10.50;;;3.80;53.40;;;;;;4999391;28;20208;-57
2024/03/08 00:27:49;;;;;;;13.37;11.27;;;3.80;53.00;;;;;;4998651;28;20210;-57
2024/03/08 00:30:15;;;;;;;12.83;10.70;;;3.90;53.40;;;;;;4996686;28;20192;-60
2024/03/08 00:32:42;;;;;;;11.20;9.90;;;4.00;52.90;;;;;;5000823;28;20224;-58
2024/03/08 00:35:08;;;;;;;14.37;10.87;;;3.90;53.00;;;;;;4994242;28;20227;-60
2024/03/08 00:37:35;;;;;;;11.70;10.53;;;4.00;53.40;;;;;;4990552;28;20209;-59
2024/03/08 00:40:02;;;;;;;13.63;11.23;;;3.90;53.40;;;;;;4991635;28;20219;-60
2024/03/08 00:42:28;;;;;;;13.83;11.10;;;3.80;53.70;;;;;;4994611;28;20232;-57
2024/03/08 00:44:55;;;;;;;13.80;11.33;;;3.80;53.30;;;;;;4991409;28;20213;-59
2024/03/08 00:47:22;;;;;;;12.17;10.83;;;3.80;52.80;;;;;;4994248;28;20204;-58
2024/03/08 00:49:48;;;;;;;13.13;11.67;;;3.80;53.20;;;;;;4989778;28;20209;-58
2024/03/08 00:52:15;;;;;;;12.97;10.87;;;3.90;52.80;;;;;;4993108;28;20713;-58
2024/03/08 00:54:42;;;;;;;13.73;10.83;;;4.00;52.70;;;;;;4995188;28;20845;-59
2024/03/08 00:57:09;;;;;;;14.53;11.07;;;4.00;52.60;;;;;;4995448;28;20726;-58
2024/03/08 00:59:36;;;;;;;14.60;11.93;;;3.90;52.80;;;;;;4995312;28;20748;-58
2024/03/08 01:02:02;;;;;;;12.70;10.63;;;3.90;52.90;;;;;;4996269;28;20228;-59
2024/03/08 01:04:30;;;;;;;13.33;11.17;;;3.90;52.90;;;;;;4991909;28;20213;-58
2024/03/08 01:06:56;;;;;;;13.63;11.67;;;3.80;52.90;;;;;;4990796;28;20299;-60
2024/03/08 01:09:22;;;;;;;14.30;12.10;;;3.80;53.00;;;;;;4992932;28;20231;-59
2024/03/08 01:11:49;;;;;;;13.23;10.63;;;3.70;53.40;;;;;;4989800;28;20231;-57
2024/03/08 01:14:15;;;;;;;12.47;10.80;;;3.80;53.70;;;;;;4995963;28;20212;-60
2024/03/08 01:16:42;;;;;;;13.60;10.63;;;3.70;53.60;;;;;;4995960;28;20633;-59
2024/03/08 01:19:09;;;;;;;12.37;11.03;;;3.50;53.50;;;;;;4994899;28;20212;-60
2024/03/08 01:21:35;;;;;;;12.97;11.03;;;3.40;53.40;;;;;;4994162;28;20236;-59
2024/03/08 01:24:02;;;;;;;14.30;11.60;;;3.50;53.50;;;;;;4995794;28;20209;-58
2024/03/08 01:26:29;;;;;;;14.90;11.40;;;3.30;54.30;;;;;;4995453;28;20299;-59
2024/03/08 01:28:56;;;;;;;11.77;10.47;;;3.50;54.00;;;;;;4997793;28;20216;-57
2024/03/08 01:31:23;;;;;;;15.27;12.23;;;3.50;53.90;;;;;;4994492;28;20256;-57
2024/03/08 01:33:50;;;;;;;12.37;10.73;;;3.40;53.80;;;;;;4999071;28;20578;-59
2024/03/08 01:36:17;;;;;;;13.87;11.17;;;3.40;54.00;;;;;;5000471;28;20221;-59
2024/03/08 01:38:44;;;;;;;13.77;11.03;;;3.50;53.60;;;;;;5000134;28;20296;-59
2024/03/08 01:41:12;;;;;;;14.70;11.73;;;3.40;54.40;;;;;;4998705;28;20301;-58
2024/03/08 01:43:38;;;;;;;12.83;11.53;;;3.40;53.80;;;;;;4996178;28;20290;-60
2024/03/08 01:46:05;;;;;;;14.80;11.73;;;3.60;53.60;;;;;;4995860;28;20659;-59
2024/03/08 01:48:32;;;;;;;15.30;11.60;;;3.60;53.60;;;;;;4992819;28;20215;-59
2024/03/08 01:50:58;;;;;;;14.60;12.33;;;3.60;53.80;;;;;;4997877;28;20208;-58
2024/03/08 01:53:25;;;;;;;14.10;11.10;;;3.60;53.60;;;;;;4999357;28;20267;-58
2024/03/08 01:55:51;;;;;;;14.07;11.10;;;3.60;53.60;;;;;;4999153;28;20587;-58
2024/03/08 01:58:20;;;;;;;15.03;11.53;;;3.60;53.60;;;;;;5000119;28;20247;-59
2024/03/08 02:00:46;;;;;;;14.10;12.00;;;3.50;53.50;;;;;;4996497;28;20729;-58
2024/03/08 02:03:13;;;;;;;15.30;12.50;;;3.30;54.50;;;;;;4991962;28;20236;-59
2024/03/08 02:05:40;;;;;;;14.53;11.60;;;3.40;54.70;;;;;;4999381;28;20207;-58
2024/03/08 02:08:14;;;;;;;13.93;11.87;;;3.30;54.70;;;;;;5000551;28;20295;-59
2024/03/08 02:10:41;;;;;;;15.37;12.30;;;3.30;54.70;;;;;;4993092;28;20577;-59
2024/03/08 02:13:08;;;;;;;16.03;12.40;;;3.20;54.70;;;;;;5000551;28;20291;-59
2024/03/08 02:15:34;;;;;;;14.57;12.03;;;3.20;54.70;;;;;;5000655;28;20689;-60
2024/03/08 02:18:01;;;;;;;15.17;12.73;;;3.20;55.20;;;;;;4995621;28;20211;-59
2024/03/08 02:20:27;;;;;;;15.87;12.27;;;3.30;55.00;;;;;;4991652;28;20311;-58
2024/03/08 02:22:54;;;;;;;14.50;12.23;;;3.30;54.90;;;;;;4996984;28;20237;-60
2024/03/08 02:25:21;;;;;;;15.53;12.60;;;3.40;54.90;;;;;;5001952;28;20701;-59
2024/03/08 02:27:47;;;;;;;15.67;12.40;;;3.40;54.70;;;;;;5002112;28;20581;-58
2024/03/08 02:30:14;;;;;;;15.30;12.47;;;3.30;54.90;;;;;;5001601;28;20577;-61
2024/03/08 02:32:40;;;;;;;15.27;12.70;;;3.40;54.90;;;;;;5002071;28;20266;-60
2024/03/08 02:35:07;;;;;;;15.53;12.90;;;3.20;54.80;;;;;;4999828;28;20222;-58
2024/03/08 02:37:33;;;;;;;15.03;12.83;;;3.40;55.00;;;;;;4991235;28;20571;-58
2024/03/08 02:40:00;;;;;;;16.23;12.50;;;3.40;54.70;;;;;;4992423;28;20677;-59
2024/03/08 02:42:27;;;;;;;14.97;12.70;;;3.20;55.20;;;;;;5002153;28;20734;-58
2024/03/08 02:44:53;;;;;;;17.20;12.97;;;3.20;55.50;;;;;;5001759;28;20204;-60
2024/03/08 02:47:20;;;;;;;14.50;12.40;;;3.10;55.50;;;;;;5002204;28;20283;-61
2024/03/08 02:49:47;;;;;;;16.30;12.43;;;3.20;56.00;;;;;;5003976;28;20208;-60
2024/03/08 02:52:13;;;;;;;15.13;11.93;;;3.30;55.20;;;;;;5001313;28;20683;-60
2024/03/08 02:54:40;;;;;;;14.53;12.13;;;3.30;55.30;;;;;;4998541;28;20215;-59
2024/03/08 02:57:08;;;;;;;16.07;13.13;;;3.30;55.60;;;;;;5007489;28;20203;-60
2024/03/08 02:59:35;;;;;;;15.93;12.73;;;3.00;56.10;;;;;;5003708;28;20243;-60
2024/03/08 03:02:02;;;;;;;17.33;13.40;;;3.00;56.20;;;;;;5004352;28;20263;-60
2024/03/08 03:04:28;;;;;;;16.70;13.03;;;3.00;56.50;;;;;;5004084;28;20207;-61
2024/03/08 03:06:55;;;;;;;18.00;12.53;;;3.10;56.20;;;;;;5004267;28;20212;-61
2024/03/08 03:09:27;;;;;;;15.17;12.60;;;3.20;55.90;;;;;;5005894;28;20219;-59
2024/03/08 03:11:54;;;;;;;15.57;13.13;;;3.00;56.00;;;;;;4998471;28;20223;-61
2024/03/08 03:14:20;;;;;;;15.53;13.50;;;3.00;56.20;;;;;;4996182;28;20212;-59
2024/03/08 03:16:47;;;;;;;17.43;13.70;;;3.00;56.40;;;;;;4993888;28;20211;-60
2024/03/08 03:19:14;;;;;;;17.33;13.53;;;2.90;56.60;;;;;;4999402;28;20226;-58
2024/03/08 03:21:43;;;;;;;17.47;12.90;;;2.90;56.90;;;;;;4998778;28;20295;-57
2024/03/08 03:24:10;;;;;;;18.43;14.17;;;2.80;56.90;;;;;;4997086;28;20266;-59
2024/03/08 03:26:38;;;;;;;17.87;13.77;;;2.90;56.60;;;;;;4992004;28;20212;-59
2024/03/08 03:29:06;;;;;;;17.30;13.70;;;2.90;57.30;;;;;;4999519;28;20211;-60
2024/03/08 03:31:32;;;;;;;15.90;12.93;;;2.90;57.00;;;;;;4991348;28;20215;-58
2024/03/08 03:34:01;;;;;;;18.33;13.27;;;2.90;57.30;;;;;;5001438;28;20212;-58
2024/03/08 03:36:28;;;;;;;17.53;13.53;;;2.90;57.30;;;;;;4997559;28;20219;-59
2024/03/08 03:39:06;;;;;;;16.23;13.87;;;3.00;56.90;;;;;;4999407;28;20262;-58
2024/03/08 03:41:34;;;;;;;16.80;13.37;;;2.90;57.30;;;;;;4998342;28;20381;-59
2024/03/08 03:44:00;;;;;;;18.17;13.63;;;2.90;57.10;;;;;;4998281;28;20701;-59
2024/03/08 03:46:27;;;;;;;15.67;13.17;;;2.90;57.00;;;;;;4997168;28;20223;-60
2024/03/08 03:48:54;;;;;;;17.23;14.10;;;2.80;57.50;;;;;;4998121;28;20209;-57
2024/03/08 03:51:21;;;;;;;16.73;14.43;;;2.90;57.30;;;;;;4988986;28;20239;-59
2024/03/08 03:53:47;;;;;;;19.03;14.10;;;2.80;57.20;;;;;;4996832;28;20214;-58
2024/03/08 03:56:14;;;;;;;17.73;13.37;;;2.80;57.20;;;;;;4999070;28;20218;-57
2024/03/08 03:58:42;;;;;;;17.57;14.00;;;2.80;57.20;;;;;;4996597;28;20208;-58
2024/03/08 04:01:09;;;;;;;17.00;13.67;;;2.70;57.90;;;;;;4998671;28;20235;-60
2024/03/08 04:03:36;;;;;;;16.60;13.60;;;2.70;57.50;;;;;;4998401;28;20291;-59
2024/03/08 04:06:03;;;;;;;15.93;13.93;;;2.70;58.20;;;;;;4998941;28;20227;-59
2024/03/08 04:08:29;;;;;;;17.20;14.27;;;2.80;57.80;;;;;;4990930;28;20223;-58
2024/03/08 04:10:56;;;;;;;18.47;14.60;;;2.70;57.10;;;;;;4990860;28;20211;-59
2024/03/08 04:13:22;;;;;;;18.47;14.90;;;2.70;58.10;;;;;;4998426;28;20200;-61
2024/03/08 04:15:49;;;;;;;15.20;12.73;;;2.70;57.60;;;;;;4992396;28;20212;-60
2024/03/08 04:18:15;;;;;;;19.13;15.20;;;2.70;57.70;;;;;;4994724;28;20564;-60
2024/03/08 04:20:42;;;;;;;19.10;15.67;;;2.70;57.40;;;;;;4994878;28;20646;-58
2024/03/08 04:23:09;;;;;;;18.07;14.50;;;2.70;57.70;;;;;;4994780;28;20626;-58
2024/03/08 04:25:35;;;;;;;17.70;13.83;;;2.80;57.70;;;;;;4989187;28;20595;-58
2024/03/08 04:28:02;;;;;;;19.57;15.20;;;2.70;57.70;;;;;;4981669;28;20204;-57
2024/03/08 04:30:30;;;;;;;17.50;14.07;;;2.70;57.60;;;;;;4994640;28;20696;-60
2024/03/08 04:32:56;;;;;;;18.80;14.73;;;2.90;57.30;;;;;;4993114;28;20227;-59
2024/03/08 04:35:24;;;;;;;18.43;15.00;;;2.90;57.30;;;;;;4996359;28;20205;-58
2024/03/08 04:37:50;;;;;;;18.83;15.07;;;2.70;57.20;;;;;;4992473;28;20220;-59
2024/03/08 04:40:18;;;;;;;18.33;14.70;;;2.70;57.20;;;;;;4986702;28;20673;-59
2024/03/08 04:42:45;;;;;;;19.10;14.87;;;2.60;57.40;;;;;;4996083;28;20330;-60
2024/03/08 04:45:12;;;;;;;19.63;14.80;;;2.60;58.20;;;;;;4997086;28;20203;-58
2024/03/08 04:47:38;;;;;;;17.93;15.90;;;2.60;57.80;;;;;;4997293;28;20266;-58
2024/03/08 04:50:05;;;;;;;20.10;15.67;;;2.60;57.80;;;;;;4996773;28;20649;-58
2024/03/08 04:52:32;;;;;;;18.63;15.17;;;2.70;57.90;;;;;;4996918;28;20251;-59
2024/03/08 04:54:58;;;;;;;20.17;15.93;;;2.80;57.70;;;;;;4997642;28;20212;-58
2024/03/08 04:57:25;;;;;;;20.77;15.67;;;2.70;57.80;;;;;;4987964;28;20224;-61
2024/03/08 04:59:52;;;;;;;22.33;16.77;;;2.60;58.40;;;;;;4999710;28;20233;-59
2024/03/08 05:02:18;;;;;;;18.37;16.20;;;2.50;58.40;;;;;;5001131;28;20232;-60
2024/03/08 05:04:45;;;;;;;22.43;16.20;;;2.50;58.80;;;;;;5000381;28;20211;-58
2024/03/08 05:07:12;;;;;;;20.00;16.00;;;2.60;58.20;;;;;;4998110;28;20303;-60
2024/03/08 05:09:40;;;;;;;19.53;15.27;;;2.50;58.50;;;;;;5001365;28;20215;-58
2024/03/08 05:12:07;;;;;;;21.70;16.13;;;2.60;58.60;;;;;;5001255;28;20721;-59
2024/03/08 05:14:34;;;;;;;22.87;17.67;;;2.60;58.30;;;;;;4993431;28;20247;-59
2024/03/08 05:17:01;;;;;;;20.10;16.10;;;2.50;58.20;;;;;;4999714;28;20236;-59
2024/03/08 05:19:30;;;;;;;20.30;16.23;;;2.60;58.40;;;;;;5002288;28;20231;-59
2024/03/08 05:21:56;;;;;;;22.03;17.97;;;2.50;58.70;;;;;;5003071;28;20247;-59
2024/03/08 05:24:23;;;;;;;23.60;17.97;;;2.60;58.30;;;;;;4999142;28;20239;-59
2024/03/08 05:26:50;;;;;;;22.40;17.00;;;2.50;59.20;;;;;;5001444;28;20219;-58
2024/03/08 05:29:16;;;;;;;20.30;15.93;;;2.50;59.10;;;;;;5006909;28;20211;-59
2024/03/08 05:31:43;;;;;;;20.77;16.70;;;2.60;59.10;;;;;;4993275;28;20307;-60
2024/03/08 05:34:10;;;;;;;23.27;16.90;;;2.60;58.70;;;;;;4995900;28;20207;-59
2024/03/08 05:36:36;;;;;;;20.13;16.53;;;2.70;58.40;;;;;;5002843;28;20204;-59
2024/03/08 05:39:06;;;;;;;20.53;16.70;;;2.50;58.90;;;;;;5001404;28;20207;-58
2024/03/08 05:41:32;;;;;;;23.97;17.20;;;2.60;58.80;;;;;;4998422;28;20244;-58
2024/03/08 05:43:59;;;;;;;22.13;17.10;;;2.60;58.60;;;;;;4999734;28;20215;-59
2024/03/08 05:46:25;;;;;;;20.47;16.13;;;2.50;58.70;;;;;;5000923;28;20217;-58
2024/03/08 05:48:52;;;;;;;21.37;16.67;;;2.50;58.90;;;;;;5001759;28;20622;-59
2024/03/08 05:51:21;;;;;;;21.30;16.83;;;2.50;59.00;;;;;;4987221;28;20278;-58
2024/03/08 05:53:47;;;;;;;20.57;17.27;;;2.50;58.60;;;;;;4995272;28;20207;-59
2024/03/08 05:56:14;;;;;;;20.63;16.23;;;2.60;58.60;;;;;;5001448;28;20207;-58
2024/03/08 05:58:40;;;;;;;20.20;15.93;;;2.50;59.10;;;;;;4999489;28;20208;-58
2024/03/08 06:01:07;;;;;;;21.67;16.17;;;2.40;59.00;;;;;;5001993;28;20698;-59
2024/03/08 06:03:34;;;;;;;22.77;17.37;;;2.40;59.10;;;;;;5001450;28;20212;-58
2024/03/08 06:06:00;;;;;;;20.73;16.23;;;2.50;58.90;;;;;;5001418;28;20215;-59
2024/03/08 06:08:29;;;;;;;22.63;16.67;;;2.50;59.10;;;;;;4993707;28;20212;-59
2024/03/08 06:10:56;;;;;;;22.90;16.53;;;2.50;58.90;;;;;;4995475;28;20208;-58
2024/03/08 06:13:22;;;;;;;20.27;16.27;;;2.50;59.00;;;;;;5001058;28;20208;-58
2024/03/08 06:15:50;;;;;;;22.47;17.30;;;2.60;59.10;;;;;;4998737;28;20223;-58
2024/03/08 06:18:17;;;;;;;22.30;17.20;;;2.70;58.90;;;;;;5001102;28;20203;-58
2024/03/08 06:20:46;;;;;;;21.20;16.97;;;2.60;58.40;;;;;;5000975;28;20246;-57
2024/03/08 06:23:12;;;;;;;20.93;16.43;;;2.60;59.40;;;;;;5001434;28;20278;-58
2024/03/08 06:25:39;;;;;;;23.97;16.77;;;2.50;58.90;;;;;;5001025;28;20638;-60
2024/03/08 06:28:05;;;;;;;21.27;16.30;;;2.60;58.80;;;;;;4995098;28;20211;-59
2024/03/08 06:30:32;;;;;;;20.80;16.10;;;2.60;58.40;;;;;;4994801;28;20597;-59
2024/03/08 06:32:59;;;;;;;21.13;16.73;;;2.70;58.20;;;;;;4998187;28;20224;-59
2024/03/08 06:35:25;;;;;;;21.20;15.43;;;2.70;58.20;;;;;;5000778;28;20212;-57
2024/03/08 06:37:52;;;;;;;21.53;15.70;;;2.70;58.40;;;;;;5002192;28;20208;-60
2024/03/08 06:40:18;;;;;;;21.87;16.17;;;2.60;58.10;;;;;;4994234;28;20212;-59
2024/03/08 06:42:45;;;;;;;20.77;15.77;;;2.50;58.30;;;;;;5001432;28;20239;-58
2024/03/08 06:45:12;;;;;;;21.07;16.37;;;2.60;58.40;;;;;;5002264;28;20216;-59
2024/03/08 06:47:39;;;;;;;20.17;16.03;;;2.60;58.30;;;;;;5001128;28;20737;-57
2024/03/08 06:50:08;;;;;;;21.93;16.43;;;2.60;58.00;;;;;;4998097;28;20219;-58
2024/03/08 06:52:34;;;;;;;23.47;16.93;;;2.60;58.30;;;;;;5000767;28;20232;-58
2024/03/08 06:55:02;;;;;;;19.43;15.40;;;2.70;58.10;;;;;;5001213;28;20211;-58
2024/03/08 06:57:29;;;;;;;21.70;16.03;;;2.70;57.90;;;;;;4994677;28;20213;-58
2024/03/08 06:59:57;;;;;;;19.87;15.77;;;2.80;57.50;;;;;;4997976;28;20208;-56
2024/03/08 07:02:24;;;;;;;20.13;14.67;;;2.60;57.30;;;;;;4988842;28;20235;-58
2024/03/08 07:04:50;;;;;;;21.13;15.83;;;2.70;57.80;;;;;;4993434;28;20294;-57
2024/03/08 07:07:20;;;;;;;18.93;15.43;;;2.70;57.80;;;;;;4998047;28;20223;-57
2024/03/08 07:09:46;;;;;;;21.13;15.97;;;2.60;57.80;;;;;;4999835;28;20218;-57
2024/03/08 07:12:13;;;;;;;21.53;15.43;;;2.80;57.50;;;;;;4999838;28;20227;-55
2024/03/08 07:14:40;;;;;;;19.73;15.07;;;2.80;57.20;;;;;;5000450;28;20212;-57
2024/03/08 07:17:08;;;;;;;21.23;16.23;;;2.70;57.50;;;;;;4999080;28;20211;-58
2024/03/08 07:19:34;;;;;;;21.80;16.27;;;2.80;57.90;;;;;;5000092;28;20745;-57
2024/03/08 07:22:03;;;;;;;22.73;16.47;;;2.80;57.40;;;;;;4989737;28;20241;-57
2024/03/08 07:24:39;;;;;;;19.97;15.77;;;2.90;57.30;;;;;;4997615;28;20215;-56
2024/03/08 07:27:06;;;;;;;23.00;15.93;;;2.90;57.40;;;;;;4998605;28;20211;-59
2024/03/08 07:29:33;;;;;;;20.63;15.40;;;3.00;57.40;;;;;;4999025;28;20215;-58
2024/03/08 07:32:12;;;;;;;21.37;16.90;;;3.00;57.30;;;;;;4996126;28;20311;-58
2024/03/08 07:34:39;;;;;;;19.70;15.53;;;3.00;57.40;;;;;;4994508;28;20199;-55
2024/03/08 07:37:06;;;;;;;23.07;15.53;;;3.10;56.90;;;;;;4987925;28;20303;-58
2024/03/08 07:39:32;;;;;;;21.77;15.07;;;3.10;56.90;;;;;;4990996;28;20212;-58
2024/03/08 07:41:58;;;;;;;18.43;14.73;;;3.10;57.20;;;;;;4997173;28;20231;-59
2024/03/08 07:44:24;;;;;;;21.37;15.73;;;3.20;56.60;;;;;;4998838;28;20256;-58
2024/03/08 07:46:51;;;;;;;22.43;16.17;;;3.20;56.20;;;;;;4999241;28;20278;-60
2024/03/08 07:49:20;;;;;;;20.83;16.57;;;3.30;56.10;;;;;;4990117;28;20259;-59
2024/03/08 07:51:49;;;;;;;19.37;14.60;;;3.40;55.80;;;;;;4998726;28;20569;-59
2024/03/08 07:54:16;;;;;;;20.50;15.17;;;3.40;55.50;;;;;;4994471;28;20208;-57
2024/03/08 07:56:43;;;;;;;19.80;15.33;;;3.40;55.50;;;;;;4988931;28;20207;-58
2024/03/08 07:59:11;;;;;;;24.37;16.30;;;3.50;55.30;;;;;;4994505;28;20211;-56
2024/03/08 08:01:38;;;;;;;19.60;14.67;;;3.50;55.30;;;;;;4987916;28;20287;-59
2024/03/08 08:04:04;;;;;;;22.90;14.77;;;3.70;55.20;;;;;;4994885;28;20208;-59
2024/03/08 08:06:33;;;;;;;20.00;15.53;;;3.90;54.90;;;;;;4994092;28;20200;-57
2024/03/08 08:09:00;;;;;;;20.00;15.60;;;4.00;54.20;;;;;;4995265;28;20268;-58
2024/03/08 08:11:27;;;;;;;23.20;15.47;;;3.80;54.30;;;;;;4996466;28;20227;-59
2024/03/08 08:13:54;;;;;;;19.30;14.73;;;3.70;54.20;;;;;;4994926;28;20631;-57
2024/03/08 08:16:21;;;;;;;18.87;14.90;;;3.90;54.20;;;;;;4985870;28;20236;-60
2024/03/08 08:18:48;;;;;;;22.10;14.70;;;4.10;54.00;;;;;;4993192;28;20278;-57
2024/03/08 08:21:15;;;;;;;19.60;14.70;;;4.00;53.90;;;;;;4991611;28;20232;-58
2024/03/08 08:23:47;;;;;;;21.77;15.07;;;4.20;54.10;;;;;;4985377;28;20237;-57
2024/03/08 08:26:21;;;;;;;19.83;15.10;;;4.50;53.40;;;;;;4995331;28;20210;-58
2024/03/08 08:28:53;;;;;;;22.27;16.60;;;4.50;53.60;;;;;;4975108;28;20218;-58
2024/03/08 08:31:19;;;;;;;22.40;15.90;;;4.70;53.30;;;;;;4990084;28;20239;-60
2024/03/08 08:33:48;;;;;;;21.70;14.97;;;4.80;53.70;;;;;;4992211;28;20607;-58
2024/03/08 08:36:13;;;;;;;22.47;15.83;;;4.80;53.70;;;;;;4991961;28;20208;-57
2024/03/08 08:38:42;;;;;;;19.60;15.43;;;5.00;52.40;;;;;;5002463;28;20615;-67
2024/03/08 08:41:09;;;;;;;20.90;14.50;;;5.20;51.90;;;;;;4989282;28;20204;-58
2024/03/08 08:43:36;;;;;;;19.43;14.80;;;4.90;50.90;;;;;;4993315;28;20656;-59
2024/03/08 08:46:04;;;;;;;21.60;15.83;;;5.20;50.90;;;;;;4998239;28;20271;-59
2024/03/08 08:48:31;;;;;;;19.03;14.70;;;5.40;51.30;;;;;;4996611;28;20241;-60
2024/03/08 08:50:58;;;;;;;20.37;14.20;;;5.70;50.10;;;;;;4998024;28;20264;-58
2024/03/08 08:53:24;;;;;;;23.97;15.70;;;5.60;49.90;;;;;;4996174;28;20230;-58
2024/03/08 08:55:53;;;;;;;20.73;15.37;;;6.00;49.90;;;;;;4998350;28;20215;-59
2024/03/08 08:58:19;;;;;;;21.50;14.83;;;6.40;48.00;;;;;;4973490;28;20299;-59
2024/03/08 09:00:46;;;;;;;20.13;14.77;;;6.30;48.10;;;;;;4987321;28;20211;-56
2024/03/08 09:03:13;;;;;;;23.63;16.43;;;6.40;48.20;;;;;;4987831;28;20242;-57
2024/03/08 09:05:39;;;;;;;21.23;16.00;;;6.50;48.00;;;;;;4992308;28;20265;-56
2024/03/08 09:08:06;;;;;;;19.53;14.20;;;6.80;47.30;;;;;;4999907;28;20222;-59
2024/03/08 09:10:33;;;;;;;20.87;15.20;;;7.30;46.50;;;;;;4998495;28;20215;-57
2024/03/08 09:13:01;;;;;;;21.17;15.13;;;7.50;45.90;;;;;;4997442;28;20235;-59
2024/03/08 09:15:28;;;;;;;21.27;16.07;;;7.50;46.60;;;;;;5001272;28;20235;-59
2024/03/08 09:17:55;;;;;;;20.80;15.23;;;7.50;45.10;;;;;;4997119;28;20219;-58
2024/03/08 09:20:21;;;;;;;20.70;15.47;;;7.40;45.90;;;;;;4988198;28;20833;-58
2024/03/08 09:22:48;;;;;;;20.07;14.83;;;7.70;45.90;;;;;;4961384;28;20228;-60
2024/03/08 09:25:14;;;;;;;21.03;15.47;;;8.10;45.50;;;;;;4990782;28;20722;-59
2024/03/08 09:27:41;;;;;;;20.53;14.90;;;8.20;43.60;;;;;;4994341;28;20221;-59
2024/03/08 09:30:07;;;;;;;20.27;14.97;;;8.30;44.10;;;;;;4993623;28;20663;-59
2024/03/08 09:32:34;;;;;;;16.77;13.40;;;8.50;43.70;;;;;;5000153;28;20230;-60
2024/03/08 09:35:01;;;;;;;19.60;14.80;;;8.40;43.70;;;;;;4989842;28;20713;-59
2024/03/08 09:37:28;;;;;;;17.57;14.00;;;8.60;43.00;;;;;;5000596;28;20242;-60
2024/03/08 09:39:54;;;;;;;20.47;14.63;;;8.80;43.50;;;;;;4990577;28;20201;-60
2024/03/08 09:42:21;;;;;;;19.50;13.97;;;8.70;42.50;;;;;;4992268;28;20246;-59
2024/03/08 09:44:48;;;;;;;17.40;14.50;;;9.00;42.50;;;;;;4994596;28;20205;-60
2024/03/08 09:47:14;;;;;;;18.80;15.13;;;9.20;41.60;;;;;;4999516;28;20214;-61
2024/03/08 09:49:41;;;;;;;18.07;14.67;;;9.30;42.10;;;;;;4986512;28;20298;-59
2024/03/08 09:52:08;;;;;;;18.20;14.17;;;9.40;40.40;;;;;;4987019;28;20222;-59
2024/03/08 09:54:34;;;;;;;17.83;12.93;;;9.40;41.20;;;;;;4984709;28;20214;-59
2024/03/08 09:57:03;;;;;;;18.70;14.70;;;9.60;41.20;;;;;;4997574;28;20632;-59
2024/03/08 09:59:46;;;;;;;19.10;14.10;;;9.90;40.20;;;;;;4998877;28;20221;-59
2024/03/08 10:02:14;;;;;;;19.07;14.27;;;9.90;40.60;;;;;;5000275;28;20243;-58
2024/03/08 10:04:42;;;;;;;19.77;14.17;;;10.00;39.10;;;;;;5000858;28;20239;-59
2024/03/08 10:07:08;;;;;;;17.10;13.67;;;10.40;38.50;;;;;;5000896;28;20215;-59
2024/03/08 10:09:35;;;;;;;18.17;13.90;;;10.30;37.60;;;;;;4993385;28;20275;-57
2024/03/08 10:12:02;;;;;;;19.30;13.60;;;10.50;38.30;;;;;;4990963;28;20228;-59
2024/03/08 10:14:29;;;;;;;18.63;13.47;;;10.60;37.30;;;;;;5000318;28;20292;-59
2024/03/08 10:16:59;;;;;;;17.77;14.07;;;10.50;36.50;;;;;;5000113;28;20218;-59
2024/03/08 10:19:26;;;;;;;19.07;13.90;;;10.60;36.70;;;;;;4999285;28;20249;-59
2024/03/08 10:21:53;;;;;;;16.70;13.00;;;10.60;36.40;;;;;;4999241;28;20328;-59
2024/03/08 10:24:20;;;;;;;15.97;13.17;;;11.00;36.10;;;;;;4998066;28;20238;-59
2024/03/08 10:26:47;;;;;;;26.27;12.97;;;11.10;36.20;;;;;;4991034;28;20699;-59
2024/03/08 10:29:15;;;;;;;16.63;12.00;;;11.20;36.00;;;;;;4995442;28;20211;-59
2024/03/08 10:31:42;;;;;;;15.73;12.53;;;11.70;36.10;;;;;;4997776;28;20235;-59
2024/03/08 10:34:09;;;;;;;15.07;12.20;;;11.80;34.70;;;;;;4999288;28;20212;-59
2024/03/08 10:36:37;;;;;;;16.97;11.83;;;11.70;34.20;;;;;;4997427;28;20219;-59
2024/03/08 10:39:04;;;;;;;17.07;12.17;;;12.20;34.90;;;;;;4996615;28;20251;-59
2024/03/08 10:41:30;;;;;;;14.23;11.13;;;12.20;33.30;;;;;;4997214;28;20232;-59
2024/03/08 10:43:57;;;;;;;15.90;12.40;;;12.20;33.50;;;;;;4975830;28;20238;-59
2024/03/08 10:46:24;;;;;;;17.23;12.33;;;12.30;33.60;;;;;;4982952;28;20207;-60
2024/03/08 10:48:50;;;;;;;17.53;12.73;;;12.40;33.50;;;;;;4996328;28;20222;-59
2024/03/08 10:51:17;;;;;;;17.20;12.80;;;12.50;33.50;;;;;;4993415;28;20586;-58
2024/03/08 10:53:43;;;;;;;17.63;12.93;;;12.50;33.00;;;;;;4993730;28;20206;-59
2024/03/08 10:56:10;;;;;;;16.80;12.67;;;12.40;32.60;;;;;;4993421;28;20208;-59
2024/03/08 10:58:36;;;;;;;16.83;11.77;;;12.90;32.80;;;;;;4993954;28;20205;-59
2024/03/08 11:01:03;;;;;;;14.77;11.30;;;13.30;31.90;;;;;;4992287;28;20211;-59
2024/03/08 11:03:30;;;;;;;15.90;12.17;;;13.50;32.10;;;;;;4995651;28;20226;-59
2024/03/08 11:06:00;;;;;;;14.77;11.77;;;13.70;31.60;;;;;;4993441;28;20218;-58
2024/03/08 11:08:27;;;;;;;14.60;12.10;;;13.80;31.30;;;;;;4976237;28;20206;-59
2024/03/08 11:10:55;;;;;;;14.47;12.27;;;13.40;31.20;;;;;;4980458;28;20208;-58
2024/03/08 11:13:22;;;;;;;14.40;12.27;;;13.80;31.30;;;;;;4994563;28;20210;-59
2024/03/08 11:15:49;;;;;;;14.80;12.30;;;14.10;31.20;;;;;;4993537;28;20208;-59
2024/03/08 11:18:15;;;;;;;15.83;12.27;;;14.30;30.60;;;;;;4994887;28;20204;-60
2024/03/08 11:20:42;;;;;;;15.77;11.63;;;14.20;31.10;;;;;;4989746;28;20223;-59
2024/03/08 11:23:09;;;;;;;13.83;11.50;;;14.80;30.00;;;;;;4988868;28;20238;-59
2024/03/08 11:25:39;;;;;;;16.30;12.13;;;15.30;29.80;;;;;;4980236;28;20235;-56
2024/03/08 11:28:05;;;;;;;15.13;12.00;;;15.20;31.10;;;;;;4989489;28;20208;-59
2024/03/08 11:30:32;;;;;;;13.47;11.57;;;15.30;30.10;;;;;;4971483;28;20452;-58
2024/03/08 11:32:59;;;;;;;14.23;11.20;;;15.40;28.30;;;;;;4990454;28;20585;-59
2024/03/08 11:35:26;;;;;;;14.80;12.23;;;15.60;29.10;;;;;;4984388;28;20199;-59
2024/03/08 11:37:52;;;;;;;14.63;12.03;;;16.30;28.40;;;;;;4996501;28;20211;-58
2024/03/08 11:40:19;;;;;;;16.93;12.87;;;16.30;27.80;;;;;;4993097;28;20207;-58
2024/03/08 11:42:47;;;;;;;14.33;11.70;;;16.40;27.30;;;;;;4980375;28;20227;-60
2024/03/08 11:45:14;;;;;;;15.45;12.75;;;15.80;27.90;;;;;;4968036;28;21209;-57
2024/03/08 11:47:40;;;;;;;13.40;11.85;;;15.80;27.90;;;;;;4988211;28;20208;-59
2024/03/08 11:50:10;;;;;;;13.13;11.43;;;16.20;27.70;;;;;;4986682;28;20258;-58
2024/03/08 11:52:37;;;;;;;12.38;10.88;;;17.10;27.40;;;;;;4984387;28;20223;-59
2024/03/08 11:55:04;;;;;;;14.35;11.82;;;17.20;26.70;;;;;;4985988;28;20232;-59
2024/03/08 11:57:31;;;;;;;14.80;11.57;;;17.60;25.90;;;;;;4992146;28;20265;-56
2024/03/08 11:59:58;;;;;;;14.52;11.63;;;16.60;26.60;;;;;;4986722;28;20204;-57
2024/03/08 12:02:24;;;;;;;14.70;11.20;;;17.20;26.30;;;;;;4990369;28;20223;-57
2024/03/08 12:04:51;;;;;;;14.27;11.77;;;16.80;26.40;;;;;;4988304;28;20207;-57
2024/03/08 12:07:18;;;;;;;14.57;11.65;;;16.80;26.80;;;;;;4986485;28;20215;-59
2024/03/08 12:09:46;;;;;;;13.73;11.95;;;16.60;26.70;;;;;;4983614;28;20218;-58
2024/03/08 12:12:13;;;;;;;13.40;11.65;;;16.60;27.20;;;;;;4984852;28;20235;-58
2024/03/08 12:14:39;;;;;;;14.48;11.98;;;16.50;26.90;;;;;;4990218;28;20425;-58
2024/03/08 12:17:09;;;;;;;13.70;11.57;;;16.80;26.40;;;;;;4992445;28;20207;-59
2024/03/08 12:19:37;;;;;;;12.45;11.10;;;16.60;26.80;;;;;;4982634;28;20299;-59
2024/03/08 12:22:07;;;;;;;13.23;11.35;;;16.60;27.00;;;;;;4982864;28;20841;-59
2024/03/08 12:24:34;;;;;;;14.38;12.40;;;17.00;26.60;;;;;;4987102;28;20228;-59
2024/03/08 12:27:00;;;;;;;13.77;12.05;;;17.20;26.30;;;;;;4983874;28;20635;-58
2024/03/08 12:29:27;;;;;;;16.02;11.20;;;16.70;26.20;;;;;;4982320;28;20674;-59
2024/03/08 12:31:54;;;;;;;15.18;12.07;;;17.40;25.80;;;;;;4992386;28;20227;-59
2024/03/08 12:34:20;;;;;;;14.15;11.90;;;17.50;25.70;;;;;;4991125;28;20203;-63